Time;durP1;ratioP1;P1;durP2;ratioP2;P2;SDS_P1;SDS_P2;PMS_P1;PMS_P2;Temp;Humidity;BMP_temperature;BMP_pressure;BME280_temperature;BME280_humidity;BME280_pressure;Samples;Min_cycle;Max_cycle;Signal;HPM_P1;HPM_P2
2021/03/31 00:01:33;;;;;;;36.33;24.55;;;10.60;99.90;;;;;;5049602;28;20453;-67
2021/03/31 00:03:59;;;;;;;36.55;25.45;;;10.60;99.90;;;;;;5049184;28;20049;-67
2021/03/31 00:06:25;;;;;;;34.95;25.67;;;10.60;99.90;;;;;;5048193;28;20140;-67
2021/03/31 00:08:51;;;;;;;35.50;24.88;;;10.60;99.90;;;;;;5049364;28;20124;-67
2021/03/31 00:11:17;;;;;;;37.42;23.75;;;10.60;99.90;;;;;;5046270;28;20531;-67
2021/03/31 00:13:44;;;;;;;39.20;26.05;;;10.50;99.90;;;;;;5049004;28;20413;-67
2021/03/31 00:16:10;;;;;;;38.40;24.42;;;10.60;99.90;;;;;;5049283;28;20083;-66
2021/03/31 00:18:36;;;;;;;36.83;23.77;;;10.60;99.90;;;;;;5048971;28;20049;-66
2021/03/31 00:21:03;;;;;;;34.60;23.15;;;10.50;99.90;;;;;;5049195;28;20052;-66
2021/03/31 00:23:30;;;;;;;40.17;24.20;;;10.60;99.90;;;;;;5035153;28;20096;-66
2021/03/31 00:25:57;;;;;;;36.28;24.90;;;10.60;99.90;;;;;;5045891;28;20543;-66
2021/03/31 00:28:23;;;;;;;36.53;23.83;;;10.60;99.90;;;;;;5044410;28;20048;-66
2021/03/31 00:30:51;;;;;;;37.10;23.27;;;10.60;99.90;;;;;;5025414;28;20087;-67
2021/03/31 00:33:17;;;;;;;31.73;23.42;;;10.60;99.90;;;;;;5048826;28;20053;-66
2021/03/31 00:35:43;;;;;;;30.35;22.30;;;10.60;99.90;;;;;;5048483;28;20170;-66
2021/03/31 00:38:10;;;;;;;34.95;22.95;;;10.60;99.90;;;;;;5048426;28;20419;-67
2021/03/31 00:40:40;;;;;;;30.67;21.83;;;10.60;99.90;;;;;;5048529;28;20110;-67
2021/03/31 00:43:07;;;;;;;28.95;21.00;;;10.60;99.90;;;;;;5048594;28;20416;-66
2021/03/31 00:45:33;;;;;;;32.67;22.35;;;10.60;99.90;;;;;;5045693;28;20128;-66
2021/03/31 00:47:59;;;;;;;33.58;22.77;;;10.60;99.90;;;;;;5044254;28;20041;-66
2021/03/31 00:50:26;;;;;;;29.13;22.38;;;10.60;99.90;;;;;;5047352;28;20558;-67
2021/03/31 00:52:54;;;;;;;30.75;21.40;;;10.50;99.90;;;;;;5027561;28;20116;-66
2021/03/31 00:55:23;;;;;;;29.42;22.50;;;10.50;99.90;;;;;;5047412;28;20132;-66
2021/03/31 00:57:50;;;;;;;31.17;21.75;;;10.60;99.90;;;;;;5048400;28;20512;-66
2021/03/31 01:00:17;;;;;;;31.67;22.90;;;10.50;99.90;;;;;;5046000;28;20517;-67
2021/03/31 01:02:43;;;;;;;34.80;23.98;;;10.60;99.90;;;;;;5042986;28;20045;-66
2021/03/31 01:05:18;;;;;;;30.55;23.00;;;10.50;99.90;;;;;;5043473;28;20140;-66
2021/03/31 01:07:45;;;;;;;41.10;23.70;;;10.50;99.90;;;;;;5044409;28;20047;-66
2021/03/31 01:10:13;;;;;;;34.10;23.65;;;10.50;99.90;;;;;;5044537;28;20534;-67
2021/03/31 01:12:57;;;;;;;31.98;23.67;;;10.50;99.90;;;;;;5048042;28;20053;-66
2021/03/31 01:15:44;;;;;;;36.65;24.05;;;10.50;99.90;;;;;;5048167;28;20882;-66
2021/03/31 01:18:16;;;;;;;36.92;23.40;;;10.50;99.90;;;;;;5044414;28;20215;-65
2021/03/31 01:21:14;;;;;;;33.50;24.45;;;10.50;99.90;;;;;;5044654;28;20130;-66
2021/03/31 01:24:05;;;;;;;35.92;23.58;;;10.40;99.90;;;;;;5048072;28;20069;-67
2021/03/31 01:26:37;;;;;;;37.58;25.58;;;10.40;99.90;;;;;;5062097;28;20056;-67
2021/03/31 01:29:27;;;;;;;31.80;23.83;;;10.40;99.90;;;;;;5048056;28;20041;-66
2021/03/31 01:32:26;;;;;;;36.60;22.85;;;10.40;99.90;;;;;;5048341;28;20156;-67
2021/03/31 01:35:02;;;;;;;35.80;24.13;;;10.40;99.90;;;;;;5054311;28;20401;-66
2021/03/31 01:37:36;;;;;;;32.92;23.90;;;10.40;99.90;;;;;;5047547;28;20131;-66
2021/03/31 01:40:05;;;;;;;38.67;24.15;;;10.40;99.90;;;;;;5050657;28;20040;-66
2021/03/31 01:42:34;;;;;;;33.63;22.80;;;10.40;99.90;;;;;;5051030;28;20052;-67
2021/03/31 01:45:04;;;;;;;32.25;22.70;;;10.40;99.90;;;;;;5049885;28;20126;-66
2021/03/31 01:47:33;;;;;;;35.40;22.60;;;10.40;99.90;;;;;;5047956;28;20154;-66
2021/03/31 01:50:01;;;;;;;34.85;23.60;;;10.50;99.90;;;;;;5044440;28;20139;-66
2021/03/31 01:52:29;;;;;;;29.35;21.27;;;10.50;99.90;;;;;;5042923;28;20049;-66
2021/03/31 01:54:56;;;;;;;33.53;22.45;;;10.50;99.90;;;;;;5042677;28;20072;-66
2021/03/31 01:57:24;;;;;;;29.15;21.85;;;10.40;99.90;;;;;;5047392;28;20049;-66
2021/03/31 01:59:52;;;;;;;30.98;21.60;;;10.40;99.90;;;;;;5044553;28;20398;-66
2021/03/31 02:02:21;;;;;;;33.65;22.70;;;10.40;99.90;;;;;;5047477;28;20088;-66
2021/03/31 02:04:48;;;;;;;46.42;25.45;;;10.40;99.90;;;;;;5047460;28;20420;-66
2021/03/31 02:07:14;;;;;;;37.90;25.05;;;10.40;99.90;;;;;;5042740;28;20136;-66
2021/03/31 02:09:45;;;;;;;33.25;23.50;;;10.30;99.90;;;;;;5043711;28;20042;-66
2021/03/31 02:12:12;;;;;;;38.17;23.38;;;10.20;99.90;;;;;;5029442;28;20132;-66
2021/03/31 02:14:44;;;;;;;37.38;23.88;;;10.20;99.90;;;;;;5046939;28;20107;-66
2021/03/31 02:17:15;;;;;;;36.50;23.40;;;10.10;99.90;;;;;;5047395;28;20056;-66
2021/03/31 02:19:41;;;;;;;34.47;23.50;;;10.10;99.90;;;;;;5047486;28;20049;-66
2021/03/31 02:22:08;;;;;;;44.05;26.02;;;10.00;99.90;;;;;;5026245;28;20561;-66
2021/03/31 02:24:35;;;;;;;36.50;23.38;;;10.00;99.90;;;;;;5042194;28;20053;-66
2021/03/31 02:27:02;;;;;;;35.92;24.00;;;9.90;99.90;;;;;;5047568;28;20146;-65
2021/03/31 02:29:28;;;;;;;35.63;23.88;;;9.90;99.90;;;;;;5047252;28;20578;-66
2021/03/31 02:31:55;;;;;;;44.17;22.35;;;9.90;99.90;;;;;;5047330;28;20872;-66
2021/03/31 02:34:22;;;;;;;36.92;22.83;;;9.90;99.90;;;;;;5057719;28;20071;-66
2021/03/31 02:36:51;;;;;;;37.08;24.02;;;9.90;99.90;;;;;;5042755;28;20560;-66
2021/03/31 02:39:21;;;;;;;35.63;23.50;;;9.90;99.90;;;;;;5044819;28;20073;-66
2021/03/31 02:41:50;;;;;;;35.65;23.40;;;9.90;99.90;;;;;;5047212;28;20136;-66
2021/03/31 02:44:20;;;;;;;31.65;22.95;;;9.80;99.90;;;;;;5054390;28;20048;-66
2021/03/31 02:46:48;;;;;;;35.83;22.70;;;9.70;99.90;;;;;;5047584;28;20135;-66
2021/03/31 02:49:15;;;;;;;42.47;23.02;;;9.60;99.90;;;;;;5050118;28;20049;-66
2021/03/31 02:51:42;;;;;;;38.50;23.73;;;9.60;99.90;;;;;;5050548;28;20060;-66
2021/03/31 02:54:10;;;;;;;37.60;22.73;;;9.50;99.90;;;;;;5045968;28;20034;-66
2021/03/31 02:56:40;;;;;;;34.42;21.45;;;9.40;99.90;;;;;;5045514;28;20488;-67
2021/03/31 02:59:06;;;;;;;37.95;21.42;;;9.40;99.90;;;;;;5050497;28;20049;-66
2021/03/31 03:01:33;;;;;;;38.40;22.90;;;9.40;99.90;;;;;;5050490;28;20095;-67
2021/03/31 03:03:59;;;;;;;41.28;23.08;;;9.50;99.90;;;;;;5045996;28;20053;-66
2021/03/31 03:06:29;;;;;;;33.05;22.42;;;9.50;99.90;;;;;;5046368;28;20141;-69
2021/03/31 03:08:57;;;;;;;33.58;22.60;;;9.50;99.90;;;;;;5045731;28;20064;-69
2021/03/31 03:11:25;;;;;;;35.10;22.00;;;9.60;99.90;;;;;;5048192;28;20212;-69
2021/03/31 03:13:52;;;;;;;36.42;22.05;;;9.60;99.90;;;;;;5050512;28;20453;-69
2021/03/31 03:16:19;;;;;;;45.05;22.00;;;9.60;99.90;;;;;;5046135;28;20096;-69
2021/03/31 03:18:45;;;;;;;45.53;22.40;;;9.60;99.90;;;;;;5050279;28;20530;-69
2021/03/31 03:21:15;;;;;;;37.97;21.98;;;9.60;99.90;;;;;;5050209;28;20516;-70
2021/03/31 03:23:42;;;;;;;37.50;22.38;;;9.60;99.90;;;;;;5048867;28;20057;-70
2021/03/31 03:26:16;;;;;;;33.05;22.13;;;9.60;99.90;;;;;;5050057;28;20622;-70
2021/03/31 03:28:45;;;;;;;47.33;21.85;;;9.60;99.90;;;;;;5050184;28;20052;-69
2021/03/31 03:31:12;;;;;;;32.53;21.38;;;9.50;99.90;;;;;;5045658;28;20138;-69
2021/03/31 03:33:39;;;;;;;35.83;21.85;;;9.60;99.90;;;;;;5045854;28;20088;-69
2021/03/31 03:36:09;;;;;;;33.38;21.48;;;9.60;99.90;;;;;;5050076;28;20222;-69
2021/03/31 03:38:37;;;;;;;34.90;21.38;;;9.60;99.90;;;;;;5049680;28;20118;-69
2021/03/31 03:41:13;;;;;;;45.20;21.35;;;9.60;99.90;;;;;;5050198;28;20172;-69
2021/03/31 03:43:41;;;;;;;34.08;22.20;;;9.70;99.90;;;;;;5057885;28;20072;-69
2021/03/31 03:46:10;;;;;;;32.17;22.70;;;9.70;99.90;;;;;;5049524;28;20160;-69
2021/03/31 03:48:37;;;;;;;34.35;21.25;;;9.70;99.90;;;;;;5049483;28;20041;-69
2021/03/31 03:51:08;;;;;;;34.97;21.33;;;9.60;99.90;;;;;;5049726;28;20096;-69
2021/03/31 03:53:34;;;;;;;36.25;22.58;;;9.60;99.90;;;;;;5049359;28;20052;-69
2021/03/31 03:56:02;;;;;;;33.63;21.83;;;9.60;99.90;;;;;;5045314;28;20136;-69
2021/03/31 03:58:28;;;;;;;35.83;21.10;;;9.60;99.90;;;;;;5047046;28;20072;-68
2021/03/31 04:00:56;;;;;;;39.75;22.20;;;9.70;99.90;;;;;;5049497;28;20088;-70
2021/03/31 04:03:22;;;;;;;36.40;20.85;;;9.70;99.90;;;;;;5045894;28;20049;-69
2021/03/31 04:05:48;;;;;;;33.08;21.23;;;9.70;99.90;;;;;;5049191;28;20060;-69
2021/03/31 04:08:14;;;;;;;37.40;22.00;;;9.70;99.90;;;;;;5049073;28;20055;-69
2021/03/31 04:10:45;;;;;;;34.30;22.88;;;9.70;99.90;;;;;;5047893;28;20127;-69
2021/03/31 04:13:12;;;;;;;36.17;22.52;;;9.70;99.90;;;;;;5048914;28;20055;-70
2021/03/31 04:15:43;;;;;;;39.72;22.48;;;9.70;99.90;;;;;;5044352;28;20580;-69
2021/03/31 04:18:11;;;;;;;37.05;22.35;;;9.70;99.90;;;;;;5045131;28;20452;-69
2021/03/31 04:20:39;;;;;;;30.02;21.65;;;9.70;99.90;;;;;;5049432;28;20155;-70
2021/03/31 04:23:06;;;;;;;32.10;21.58;;;9.70;99.90;;;;;;5045078;28;20501;-69
2021/03/31 04:25:32;;;;;;;31.42;21.20;;;9.80;99.90;;;;;;5048752;28;20528;-69
2021/03/31 04:28:03;;;;;;;34.65;23.25;;;9.80;99.90;;;;;;5048854;28;20055;-70
2021/03/31 04:30:30;;;;;;;35.90;22.38;;;9.80;99.90;;;;;;5049079;28;20125;-69
2021/03/31 04:33:00;;;;;;;32.63;21.58;;;9.80;99.90;;;;;;5044184;28;20565;-69
2021/03/31 04:35:26;;;;;;;28.70;21.25;;;9.80;99.90;;;;;;5044353;28;20092;-69
2021/03/31 04:37:52;;;;;;;32.08;21.42;;;9.80;99.90;;;;;;5048568;28;20717;-69
2021/03/31 04:40:22;;;;;;;36.33;20.83;;;9.90;99.90;;;;;;5048494;28;20106;-69
2021/03/31 04:42:48;;;;;;;32.90;22.30;;;9.90;99.90;;;;;;5051783;28;20137;-68
2021/03/31 04:45:15;;;;;;;29.48;20.85;;;9.90;99.90;;;;;;5033220;28;20080;-69
2021/03/31 04:47:41;;;;;;;37.63;23.30;;;9.90;99.90;;;;;;5048351;28;20049;-70
2021/03/31 04:50:10;;;;;;;33.97;21.83;;;9.90;99.90;;;;;;5045934;28;20128;-69
2021/03/31 04:52:36;;;;;;;30.80;21.08;;;9.90;99.90;;;;;;5041662;28;20046;-70
2021/03/31 04:55:04;;;;;;;32.95;22.10;;;10.00;99.90;;;;;;5042645;28;20063;-69
2021/03/31 04:57:30;;;;;;;32.90;22.35;;;10.00;99.90;;;;;;5031368;28;20493;-69
2021/03/31 04:59:56;;;;;;;35.42;23.40;;;10.10;99.90;;;;;;5042554;28;20088;-71
2021/03/31 05:02:22;;;;;;;29.98;21.33;;;10.00;99.90;;;;;;5031000;28;20150;-69
2021/03/31 05:04:48;;;;;;;33.67;20.63;;;10.00;99.90;;;;;;5042578;28;20084;-69
2021/03/31 05:07:14;;;;;;;31.27;21.50;;;10.10;99.90;;;;;;5047959;28;20118;-70
2021/03/31 05:09:40;;;;;;;30.92;20.60;;;10.10;99.90;;;;;;5045300;28;20908;-76
2021/03/31 05:12:08;;;;;;;32.63;20.38;;;10.20;99.90;;;;;;5046965;28;20069;-70
2021/03/31 05:14:34;;;;;;;34.97;22.50;;;10.30;99.90;;;;;;5043311;28;20679;-67
2021/03/31 05:17:00;;;;;;;30.88;20.38;;;10.40;99.90;;;;;;5047913;28;20120;-68
2021/03/31 05:19:26;;;;;;;27.63;21.02;;;10.50;99.90;;;;;;5047948;28;20528;-69
2021/03/31 05:21:52;;;;;;;29.88;20.70;;;10.50;99.90;;;;;;5047894;28;20068;-70
2021/03/31 05:24:18;;;;;;;26.38;19.25;;;10.60;99.90;;;;;;5047367;28;20144;-71
2021/03/31 05:26:44;;;;;;;27.73;21.45;;;10.70;99.90;;;;;;5046470;28;20561;-69
2021/03/31 05:29:10;;;;;;;26.45;19.88;;;10.70;99.90;;;;;;5047773;28;20102;-70
2021/03/31 05:31:36;;;;;;;27.40;19.80;;;10.80;99.90;;;;;;5047947;28;20118;-71
2021/03/31 05:34:02;;;;;;;27.17;19.52;;;10.90;99.90;;;;;;5047844;28;20135;-70
2021/03/31 05:36:28;;;;;;;29.00;20.27;;;11.10;99.90;;;;;;5048372;28;20175;-70
2021/03/31 05:38:54;;;;;;;30.17;19.63;;;11.20;99.90;;;;;;5047413;28;20132;-70
2021/03/31 05:41:20;;;;;;;23.80;19.23;;;11.40;99.90;;;;;;5047775;28;20136;-68
2021/03/31 05:43:46;;;;;;;27.63;20.58;;;11.50;99.90;;;;;;5051393;28;20140;-68
2021/03/31 05:46:13;;;;;;;33.10;21.33;;;11.60;99.90;;;;;;5047690;28;20416;-68
2021/03/31 05:48:39;;;;;;;28.88;20.00;;;11.90;99.90;;;;;;5044654;28;20120;-69
2021/03/31 05:51:05;;;;;;;26.15;20.73;;;12.00;99.90;;;;;;5047581;28;20183;-69
2021/03/31 05:53:31;;;;;;;26.00;19.55;;;12.20;99.90;;;;;;5047211;28;20564;-68
2021/03/31 05:55:57;;;;;;;23.98;19.40;;;12.40;99.90;;;;;;5042979;28;20137;-71
2021/03/31 05:58:24;;;;;;;27.15;20.63;;;12.80;99.90;;;;;;5037737;28;20057;-68
2021/03/31 06:00:50;;;;;;;24.52;19.00;;;13.20;99.90;;;;;;5033737;28;20052;-72
2021/03/31 06:03:18;;;;;;;25.33;19.92;;;13.40;99.90;;;;;;5025904;28;20186;-77
2021/03/31 06:05:44;;;;;;;26.27;18.88;;;13.60;99.90;;;;;;5026640;28;20049;-75
2021/03/31 06:08:11;;;;;;;19.95;17.83;;;14.10;99.90;;;;;;5035289;28;20111;-78
2021/03/31 06:10:38;;;;;;;21.42;17.48;;;15.30;99.90;;;;;;5026479;28;20155;-75
2021/03/31 06:13:06;;;;;;;17.48;15.68;;;17.30;99.90;;;;;;5031692;28;20568;-76
2021/03/31 06:15:39;;;;;;;21.85;16.08;;;19.40;95.90;;;;;;5039830;28;20049;-77
2021/03/31 06:18:08;;;;;;;19.85;15.23;;;21.30;87.60;;;;;;5035299;28;20092;-77
2021/03/31 06:20:54;;;;;;;18.67;15.18;;;21.90;76.10;;;;;;5024122;28;20141;-72
2021/03/31 06:26:17;;;;;;;18.30;15.15;;;23.10;69.00;;;;;;5048468;28;20126;-73
2021/03/31 06:28:44;;;;;;;18.85;15.00;;;24.10;64.60;;;;;;5043938;28;20140;-72
2021/03/31 06:31:09;;;;;;;16.83;14.52;;;25.30;61.60;;;;;;5030419;28;20055;-70
2021/03/31 06:33:47;;;;;;;16.50;14.50;;;26.00;58.20;;;;;;5038804;28;20061;-70
2021/03/31 06:36:16;;;;;;;15.15;13.65;;;26.70;55.60;;;;;;5048014;28;20448;-70
2021/03/31 06:38:49;;;;;;;16.88;14.68;;;27.40;54.70;;;;;;5046679;28;20092;-69
2021/03/31 06:41:32;;;;;;;15.32;13.70;;;28.00;54.50;;;;;;5046310;28;20275;-71
2021/03/31 06:44:10;;;;;;;13.77;12.38;;;28.10;52.60;;;;;;5041955;28;20137;-70
2021/03/31 06:46:56;;;;;;;16.63;12.80;;;27.70;51.50;;;;;;5027706;28;20081;-71
2021/03/31 06:49:22;;;;;;;13.32;11.93;;;27.30;51.90;;;;;;5029082;28;20111;-71
2021/03/31 06:51:48;;;;;;;13.48;12.18;;;27.20;52.50;;;;;;5029199;28;20076;-71
2021/03/31 06:54:23;;;;;;;13.45;11.77;;;27.30;52.90;;;;;;5037205;28;20061;-72
2021/03/31 06:56:57;;;;;;;14.38;11.88;;;28.10;53.20;;;;;;5049186;28;20522;-72
2021/03/31 06:59:30;;;;;;;12.85;11.20;;;28.80;49.20;;;;;;5050660;28;20087;-71
2021/03/31 07:01:58;;;;;;;12.57;11.38;;;29.40;48.20;;;;;;5045761;28;20501;-71
2021/03/31 07:04:28;;;;;;;12.15;10.93;;;29.50;50.10;;;;;;5042673;28;20092;-71
2021/03/31 07:07:10;;;;;;;11.98;10.85;;;30.80;47.70;;;;;;5049257;28;20136;-72
2021/03/31 07:09:37;;;;;;;12.13;11.00;;;30.50;45.60;;;;;;5050406;28;20120;-72
2021/03/31 07:12:21;;;;;;;10.63;9.73;;;30.40;46.30;;;;;;5045713;28;20548;-71
2021/03/31 07:14:48;;;;;;;11.30;10.20;;;31.10;46.10;;;;;;5048694;28;20084;-74
2021/03/31 07:17:21;;;;;;;12.32;10.43;;;31.00;45.90;;;;;;5050099;28;20057;-74
2021/03/31 07:19:48;;;;;;;11.23;10.23;;;31.00;46.60;;;;;;5050098;28;20099;-76
2021/03/31 07:22:15;;;;;;;13.77;10.93;;;32.10;44.50;;;;;;5050190;28;20053;-71
2021/03/31 07:24:41;;;;;;;11.77;10.57;;;33.20;42.40;;;;;;5045027;28;20151;-70
2021/03/31 07:27:15;;;;;;;12.32;10.05;;;33.60;43.10;;;;;;5043074;28;20480;-69
2021/03/31 07:32:34;;;;;;;9.77;8.88;;;34.30;42.60;;;;;;5049988;28;20056;-69
2021/03/31 07:35:02;;;;;;;10.80;8.90;;;34.30;39.20;;;;;;5045074;28;20544;-66
2021/03/31 07:37:32;;;;;;;9.73;8.75;;;33.60;40.40;;;;;;5048025;28;20056;-64
2021/03/31 07:40:00;;;;;;;9.85;8.88;;;34.30;41.30;;;;;;5049978;28;20131;-65
2021/03/31 07:42:29;;;;;;;13.30;10.07;;;35.40;42.10;;;;;;5049607;28;20082;-63
2021/03/31 07:44:58;;;;;;;10.65;9.25;;;36.00;39.50;;;;;;5049239;28;20604;-63
2021/03/31 07:47:26;;;;;;;9.48;8.43;;;35.90;38.00;;;;;;5049495;28;20075;-64
2021/03/31 07:49:53;;;;;;;9.52;8.60;;;36.20;39.00;;;;;;5049740;28;20587;-64
2021/03/31 07:52:19;;;;;;;9.52;8.52;;;36.40;39.00;;;;;;5048478;28;20059;-70
2021/03/31 07:54:45;;;;;;;8.57;7.85;;;36.90;38.70;;;;;;5048815;28;20136;-70
2021/03/31 07:57:33;;;;;;;9.25;8.45;;;37.00;37.70;;;;;;5045967;28;20128;-69
2021/03/31 07:59:59;;;;;;;10.32;9.32;;;36.60;36.80;;;;;;5047467;28;20076;-73
2021/03/31 08:02:28;;;;;;;9.48;8.60;;;36.30;37.10;;;;;;5048310;28;20100;-70
2021/03/31 08:05:08;;;;;;;11.25;9.63;;;35.50;40.50;;;;;;5047316;28;20053;-66
2021/03/31 08:07:34;;;;;;;11.75;9.45;;;36.60;38.10;;;;;;5047653;28;20424;-66
2021/03/31 08:10:32;;;;;;;9.43;8.52;;;37.20;37.50;;;;;;5047919;28;20127;-67
2021/03/31 08:13:34;;;;;;;9.45;8.70;;;37.10;36.90;;;;;;5048973;28;20048;-67
2021/03/31 08:16:19;;;;;;;12.50;9.77;;;37.70;36.50;;;;;;5049063;28;20128;-69
2021/03/31 08:18:46;;;;;;;13.43;9.98;;;36.90;37.20;;;;;;5047452;28;20076;-64
2021/03/31 08:21:24;;;;;;;13.20;9.98;;;36.60;37.20;;;;;;5047548;28;20088;-67
2021/03/31 08:23:52;;;;;;;11.77;9.55;;;35.20;38.70;;;;;;5048682;28;20057;-68
2021/03/31 08:26:39;;;;;;;12.82;9.63;;;34.60;39.60;;;;;;5048305;28;20512;-69
2021/03/31 08:29:08;;;;;;;11.07;10.07;;;34.00;39.80;;;;;;5048505;28;20060;-68
2021/03/31 08:31:47;;;;;;;11.98;10.85;;;33.80;40.80;;;;;;5044259;28;20140;-69
2021/03/31 08:34:15;;;;;;;10.02;8.80;;;33.80;40.60;;;;;;5044852;28;20049;-68
2021/03/31 08:36:42;;;;;;;11.40;10.30;;;34.20;42.30;;;;;;5048722;28;20136;-64
2021/03/31 08:39:11;;;;;;;13.23;10.70;;;34.40;40.60;;;;;;5044008;28;20121;-64
2021/03/31 08:41:42;;;;;;;14.35;10.63;;;34.50;39.80;;;;;;5040742;28;20045;-64
2021/03/31 08:44:26;;;;;;;13.18;11.98;;;34.50;39.30;;;;;;5043721;28;20064;-67
2021/03/31 08:46:54;;;;;;;11.65;10.55;;;34.40;39.20;;;;;;5042815;28;20135;-64
2021/03/31 08:49:21;;;;;;;11.57;10.48;;;34.40;40.00;;;;;;5048475;28;20045;-62
2021/03/31 08:51:50;;;;;;;12.23;10.95;;;34.20;39.20;;;;;;5048179;28;20140;-62
2021/03/31 08:54:16;;;;;;;12.55;10.60;;;34.50;39.10;;;;;;5048052;28;20127;-62
2021/03/31 08:56:48;;;;;;;12.18;10.98;;;35.40;39.50;;;;;;5045514;28;20486;-62
2021/03/31 08:59:28;;;;;;;12.60;11.05;;;36.30;37.70;;;;;;5039786;28;20045;-62
2021/03/31 09:01:54;;;;;;;12.70;10.25;;;36.40;37.40;;;;;;5045783;28;20053;-63
2021/03/31 09:04:22;;;;;;;12.23;11.07;;;37.10;37.10;;;;;;5046032;28;20122;-68
2021/03/31 09:06:49;;;;;;;11.45;10.35;;;37.20;37.10;;;;;;5041312;28;20041;-68
2021/03/31 09:09:14;;;;;;;12.52;9.77;;;37.00;37.00;;;;;;5039776;28;20045;-71
2021/03/31 09:11:41;;;;;;;11.50;10.45;;;37.10;38.20;;;;;;5042151;28;20093;-70
2021/03/31 09:14:18;;;;;;;10.70;9.75;;;37.50;38.40;;;;;;5036945;28;20069;-71
2021/03/31 09:16:57;;;;;;;11.63;10.32;;;38.00;36.30;;;;;;5078339;28;20060;-71
2021/03/31 09:19:25;;;;;;;14.70;10.65;;;38.20;36.30;;;;;;5029355;28;20045;-71
2021/03/31 09:21:51;;;;;;;13.52;10.15;;;37.10;36.60;;;;;;5026725;28;20867;-71
2021/03/31 09:24:22;;;;;;;11.65;10.52;;;35.10;39.30;;;;;;5042786;28;20475;-66
2021/03/31 09:27:00;;;;;;;11.98;10.63;;;34.10;38.50;;;;;;5043166;28;20514;-66
2021/03/31 09:29:27;;;;;;;12.65;10.45;;;34.70;40.60;;;;;;5044674;28;20049;-66
2021/03/31 09:31:54;;;;;;;11.10;10.02;;;35.70;38.20;;;;;;5041554;28;20859;-68
2021/03/31 09:34:20;;;;;;;10.68;9.57;;;35.30;39.90;;;;;;5042781;28;20135;-68
2021/03/31 09:37:04;;;;;;;11.68;9.73;;;35.50;38.80;;;;;;5046332;28;20556;-65
2021/03/31 09:39:48;;;;;;;13.68;10.10;;;36.80;36.60;;;;;;5035713;28;20053;-68
2021/03/31 09:42:20;;;;;;;10.10;9.05;;;37.60;37.50;;;;;;5047505;28;20131;-69
2021/03/31 09:44:47;;;;;;;10.60;8.98;;;38.00;35.70;;;;;;5026660;28;20073;-66
2021/03/31 09:47:15;;;;;;;11.63;10.43;;;38.50;37.00;;;;;;5044512;28;20102;-66
2021/03/31 09:49:43;;;;;;;11.73;9.80;;;38.10;37.20;;;;;;5047890;28;20080;-66
2021/03/31 09:52:13;;;;;;;14.35;10.30;;;37.50;36.80;;;;;;5042971;28;20057;-66
2021/03/31 09:54:46;;;;;;;13.00;10.85;;;37.40;36.60;;;;;;5038483;28;20045;-67
2021/03/31 09:57:14;;;;;;;13.80;10.50;;;37.70;36.70;;;;;;5048956;28;20574;-66
2021/03/31 09:59:41;;;;;;;12.23;10.98;;;37.70;37.10;;;;;;5051545;28;20062;-64
2021/03/31 10:02:12;;;;;;;13.32;9.20;;;37.80;36.20;;;;;;5051704;28;20087;-66
2021/03/31 10:04:40;;;;;;;11.07;8.68;;;39.00;36.70;;;;;;5051554;28;20045;-64
2021/03/31 10:07:08;;;;;;;14.45;9.52;;;39.60;34.80;;;;;;5051397;28;20049;-63
2021/03/31 10:09:48;;;;;;;10.15;9.10;;;39.20;34.20;;;;;;5051365;28;20178;-65
2021/03/31 10:12:28;;;;;;;10.50;8.07;;;40.40;34.50;;;;;;5050287;28;20408;-73
2021/03/31 10:15:11;;;;;;;8.45;7.40;;;40.30;33.80;;;;;;5029939;28;20048;-69
2021/03/31 10:17:37;;;;;;;8.68;6.30;;;38.20;34.20;;;;;;5044599;28;20164;-69
2021/03/31 10:20:14;;;;;;;10.32;7.05;;;37.60;35.10;;;;;;5051424;28;20106;-67
2021/03/31 10:22:41;;;;;;;11.80;8.88;;;36.20;37.10;;;;;;5051446;28;20131;-64
2021/03/31 10:25:21;;;;;;;9.55;8.43;;;34.90;39.00;;;;;;5051055;28;20067;-67
2021/03/31 10:27:48;;;;;;;9.88;8.18;;;34.00;39.60;;;;;;5051085;28;20528;-65
2021/03/31 10:30:23;;;;;;;12.63;8.40;;;33.10;40.30;;;;;;5051095;28;20084;-64
2021/03/31 10:32:51;;;;;;;8.10;7.30;;;32.20;40.70;;;;;;5051082;28;20144;-66
2021/03/31 10:35:17;;;;;;;8.75;7.15;;;32.70;41.10;;;;;;5050840;28;20037;-71
2021/03/31 10:38:05;;;;;;;13.63;6.63;;;32.50;40.40;;;;;;5049684;28;20471;-71
2021/03/31 10:49:14;;;;;;;10.18;8.15;;;37.30;35.60;;;;;;5050332;28;20080;-67
2021/03/31 10:51:49;;;;;;;7.72;6.55;;;38.10;36.10;;;;;;5046825;28;20052;-66
2021/03/31 10:54:17;;;;;;;8.77;5.90;;;38.80;35.70;;;;;;5050694;28;20132;-67
2021/03/31 10:57:25;;;;;;;5.72;5.05;;;39.40;34.80;;;;;;5050613;28;20072;-69
2021/03/31 10:59:33;;;;;;;9.63;6.40;;;39.50;34.90;;;;;;5047134;28;20266;-68
2021/03/31 11:01:59;;;;;;;8.90;6.93;;;37.70;34.90;;;;;;5050473;28;20049;-67
2021/03/31 11:04:25;;;;;;;9.93;7.32;;;35.80;36.40;;;;;;5048415;28;20155;-65
2021/03/31 11:06:51;;;;;;;8.35;6.38;;;34.20;37.40;;;;;;5045929;28;20136;-69
2021/03/31 11:09:18;;;;;;;9.23;7.70;;;33.60;39.70;;;;;;5045102;28;20128;-65
2021/03/31 11:11:44;;;;;;;10.63;7.18;;;33.10;40.30;;;;;;5049004;28;20053;-70
2021/03/31 11:14:10;;;;;;;13.88;7.78;;;32.30;42.40;;;;;;5050171;28;20081;-68
2021/03/31 11:16:39;;;;;;;8.60;7.80;;;31.20;42.70;;;;;;5049874;28;20469;-68
2021/03/31 11:19:31;;;;;;;8.25;6.78;;;30.60;42.90;;;;;;5028114;28;20500;-70
2021/03/31 11:27:28;;;;;;;8.60;6.45;;;30.50;43.50;;;;;;5049707;28;20056;-70
2021/03/31 11:29:54;;;;;;;9.38;6.82;;;30.00;43.10;;;;;;5049980;28;20123;-68
2021/03/31 11:32:20;;;;;;;8.15;7.20;;;30.00;43.00;;;;;;5047375;28;20131;-68
2021/03/31 11:34:46;;;;;;;7.40;6.55;;;30.00;43.00;;;;;;5045227;28;20477;-70
2021/03/31 11:37:12;;;;;;;6.93;6.18;;;30.10;42.10;;;;;;5044747;28;20049;-69
2021/03/31 11:39:38;;;;;;;7.82;5.97;;;29.80;43.80;;;;;;5049707;28;20137;-67
2021/03/31 11:42:04;;;;;;;9.43;6.18;;;29.70;41.30;;;;;;5049826;28;20131;-70
2021/03/31 11:44:31;;;;;;;7.53;6.80;;;29.90;44.70;;;;;;5049846;28;20128;-68
2021/03/31 11:46:57;;;;;;;11.35;6.05;;;30.00;45.00;;;;;;5049687;28;20080;-67
2021/03/31 11:49:23;;;;;;;6.63;5.63;;;29.50;43.40;;;;;;5049717;28;20092;-67
2021/03/31 11:51:49;;;;;;;6.70;5.78;;;29.20;44.80;;;;;;5045494;28;20068;-65
2021/03/31 11:54:15;;;;;;;10.10;6.25;;;28.70;44.00;;;;;;5050398;28;20088;-65
2021/03/31 11:56:41;;;;;;;5.68;4.93;;;28.30;43.20;;;;;;5045538;28;20037;-65
2021/03/31 11:59:07;;;;;;;13.60;6.57;;;28.30;45.20;;;;;;5040366;28;20126;-66
2021/03/31 12:01:36;;;;;;;10.68;6.45;;;28.40;48.70;;;;;;5046329;28;20041;-65
2021/03/31 12:04:02;;;;;;;7.65;6.55;;;28.60;44.10;;;;;;5044729;28;20136;-68
2021/03/31 12:06:28;;;;;;;8.48;6.43;;;28.60;43.90;;;;;;5045182;28;20045;-67
2021/03/31 12:08:55;;;;;;;7.80;7.00;;;28.00;48.20;;;;;;5044636;28;20156;-67
2021/03/31 12:11:21;;;;;;;10.07;5.78;;;28.10;46.40;;;;;;5045422;28;20045;-67
2021/03/31 12:13:47;;;;;;;10.15;5.50;;;28.10;45.30;;;;;;5048438;28;20412;-68
2021/03/31 12:16:13;;;;;;;8.57;6.72;;;27.90;45.60;;;;;;5045897;28;20041;-67
2021/03/31 12:18:39;;;;;;;8.48;6.13;;;27.70;48.30;;;;;;5048619;28;20135;-68
2021/03/31 12:21:06;;;;;;;8.25;5.03;;;27.50;47.20;;;;;;5045267;28;20073;-67
2021/03/31 12:23:33;;;;;;;6.90;4.75;;;27.70;44.30;;;;;;5048800;28;20115;-67
2021/03/31 12:26:00;;;;;;;6.68;5.32;;;27.80;45.40;;;;;;5045417;28;20041;-66
2021/03/31 12:28:27;;;;;;;6.50;5.60;;;27.60;46.10;;;;;;5048666;28;20092;-66
2021/03/31 12:30:53;;;;;;;12.23;6.57;;;27.40;47.50;;;;;;5048490;28;20052;-66
2021/03/31 12:33:20;;;;;;;6.50;5.43;;;27.30;45.50;;;;;;5044159;28;20084;-66
2021/03/31 12:35:47;;;;;;;9.60;4.95;;;26.70;45.30;;;;;;5044561;28;20055;-66
2021/03/31 12:38:13;;;;;;;8.68;6.18;;;26.80;45.40;;;;;;5048650;28;20511;-67
2021/03/31 12:40:39;;;;;;;7.13;5.43;;;27.00;45.80;;;;;;5048441;28;20561;-68
2021/03/31 12:43:05;;;;;;;10.77;6.10;;;27.00;44.60;;;;;;5048420;28;20131;-68
2021/03/31 12:45:31;;;;;;;6.65;5.78;;;26.90;47.30;;;;;;5045747;28;20559;-68
2021/03/31 12:47:57;;;;;;;7.78;5.57;;;26.60;47.70;;;;;;5048161;28;20087;-67
2021/03/31 12:50:23;;;;;;;11.70;5.53;;;26.70;46.00;;;;;;5045831;28;20069;-70
2021/03/31 12:52:59;;;;;;;11.82;6.00;;;26.80;46.40;;;;;;5042284;28;20077;-68
2021/03/31 12:55:31;;;;;;;12.40;6.43;;;26.60;46.30;;;;;;5045102;28;20049;-66
2021/03/31 12:58:02;;;;;;;8.13;5.47;;;26.60;47.00;;;;;;5048032;28;20091;-67
2021/03/31 13:00:28;;;;;;;17.63;5.85;;;26.70;44.70;;;;;;5047433;28;20063;-67
2021/03/31 13:02:54;;;;;;;7.85;5.50;;;26.60;44.80;;;;;;5047914;28;20087;-67
2021/03/31 13:05:20;;;;;;;8.85;5.43;;;26.80;45.50;;;;;;5047672;28;20084;-67